ロンドン/ヒースロー の空港の天気 - METARとTAF

ロンドン・ヒースロー空港 ( EGLL / LHR ) - イギリス ロンドン
飛行場実況気象(Metar)
観測時間01/21 17:50 GMT (01/21 17:50 UTC)
風向・風速不定 2m/s
視程3600m
天気現象
全天の8割程度の雲 雲底高度 90m
全天を覆う雲 雲底高度 240m
気温6℃
湿度93%
気圧1007hPa
METAREGLL 211750Z AUTO VRB03KT 3600 RA BKN003 OVC008 06/05 Q1007 TEMPO 5000 BKN006
過去の天気等 Google飛行場航空写真 Wunderground天気予報

過去48時間のMETAR

飛行場予報(TAF)
発表時間: 1/21 17:01 GMT (1/21 17:01 UTC)
予報対象時間: 21日18時 GMT ~ 23日0時 GMT
風向・風速南 3m/s
視程6,000m
天気現象弱い雨霧雨
全天の4割程度の雲 雲底高度 180m
全天の8割程度の雲 雲底高度 300m
21日18時 GMT ~ 21日20時 GMT に徐々に
風向・風速西南西 5m/s
21日18時 GMT ~ 21日23時 GMT に一時的に
視程3,000m
天気現象雨霧雨
全天の8割程度の雲 雲底高度 180m
21日18時 GMT ~ 21日23時 GMT に 確率 30% で一時的に
全天の8割程度の雲 雲底高度 120m
21日23時 GMT ~ 22日2時 GMT に徐々に
視程10km以上
天気現象運行に影響にある天気現象が終了
全天の4割程度の雲 雲底高度 910m
22日2時 GMT から 確率 30% で
視程6,000m
TAF EGLL 211701Z 2118/2224 17006KT 6000 -RADZ SCT006 BKN010
BECMG 2118/2120 25010KT
TEMPO 2118/2123 3000 RADZ BKN006
PROB30 TEMPO 2118/2123 BKN004
BECMG 2123/2202 9999 NSW SCT030
PROB30 2202/2211 6000